Terminal Aerodrome Forecast
Issued by NWS Grand Forks, ND

Home | Current Version | Previous Version | Graphics & Text | Print | Product List | Glossary On
Versions: 1 2 3 4 5 6 7 8 9 10 11 12 13 14 15 16 17 18 19 20
000
FTUS43 KFGF 240520
TAFFAR
TAF
KFAR 240520Z 2406/2506 21009KT P6SM FEW250
     FM241500 16008KT P6SM BKN200
     FM242000 14008KT 1SM -SN OVC010
     FM250400 21004KT 2SM -SN OVC015=

USA.gov is the U.S. government's official web portal to all federal, state and local government web resources and services.